createdAt,value
2022-07-28T19:56:18.493Z,91.13
2022-07-28T19:57:20.766Z,91.26
2022-07-28T19:58:23.592Z,90.93
2022-07-28T19:59:25.699Z,91.17
2022-07-28T20:00:27.985Z,91.16
2022-07-28T20:01:31.540Z,91.23
2022-07-28T20:02:33.782Z,91.76
2022-07-28T20:04:01.759Z,92.00
2022-07-28T20:04:57.990Z,91.36
2022-07-28T20:06:00.417Z,91.53
2022-07-28T20:07:02.800Z,92.60
2022-07-28T20:08:05.988Z,91.54
2022-07-28T20:09:08.286Z,91.67
2022-07-28T20:10:10.644Z,92.13
2022-07-28T20:11:13.918Z,91.28
2022-07-28T20:12:16.029Z,91.82
2022-07-28T20:13:18.082Z,91.91
2022-07-28T20:14:20.111Z,92.20
2022-07-28T20:15:22.807Z,92.32
2022-07-28T20:16:25.093Z,92.20
2022-07-28T20:17:38.141Z,92.79
2022-07-28T20:18:44.366Z,92.08
2022-07-28T20:19:46.495Z,90.90
2022-07-28T20:20:49.102Z,91.11
2022-07-28T20:21:51.242Z,90.73
2022-07-28T20:22:53.523Z,90.20
2022-07-28T20:23:57.424Z,90.83
2022-07-28T20:24:59.512Z,91.42
2022-07-28T20:26:01.572Z,91.12
2022-07-28T20:27:08.205Z,90.37
2022-07-28T20:28:11.219Z,89.36
2022-07-28T20:29:13.350Z,90.24
2022-07-28T20:30:22.936Z,89.99
2022-07-28T20:31:25.083Z,90.03
2022-07-28T20:32:27.368Z,89.47
2022-07-28T20:33:30.370Z,88.85
2022-07-28T20:34:32.511Z,88.81
2022-07-28T20:35:34.695Z,88.45
2022-07-28T20:36:36.728Z,88.90
2022-07-28T20:37:39.074Z,89.11
2022-07-28T20:38:41.197Z,89.13
2022-07-28T20:39:45.336Z,88.53
2022-07-28T20:40:47.875Z,88.36
2022-07-28T20:41:50.135Z,88.51
2022-07-28T20:42:54.147Z,88.17
2022-07-28T20:44:18.760Z,89.12
2022-07-28T20:45:18.663Z,89.47
2022-07-28T20:46:24.874Z,89.32
2022-07-28T20:47:28.195Z,89.70
2022-07-28T20:48:30.445Z,89.63
2022-07-28T20:49:33.240Z,88.41
2022-07-28T20:50:35.563Z,89.23
2022-07-28T20:51:37.829Z,88.88
2022-07-28T20:52:39.842Z,89.21
2022-07-28T20:53:41.961Z,89.56
2022-07-28T20:54:44.015Z,88.90
2022-07-28T20:55:46.112Z,89.66
2022-07-28T20:56:48.433Z,89.60
2022-07-28T20:57:53.955Z,89.46
2022-07-28T20:58:56.335Z,89.19
2022-07-28T20:59:58.404Z,90.08
2022-07-28T21:01:03.248Z,90.00
2022-07-28T21:02:05.495Z,89.54
2022-07-28T21:03:08.049Z,90.04
2022-07-28T21:04:11.349Z,89.32
2022-07-28T21:05:23.902Z,90.15
2022-07-28T21:06:35.707Z,90.66
2022-07-28T21:08:00.061Z,90.42
2022-07-28T21:09:02.917Z,91.21
2022-07-28T21:10:06.253Z,91.33
2022-07-28T21:11:08.399Z,91.24
2022-07-28T21:12:10.625Z,92.62
2022-07-28T21:13:12.799Z,91.70
2022-07-28T21:14:15.014Z,91.68
2022-07-28T21:15:17.292Z,91.70
2022-07-28T21:16:19.544Z,91.16
2022-07-28T21:17:21.666Z,92.10
2022-07-28T21:18:24.289Z,91.34
2022-07-28T21:19:26.438Z,90.82
2022-07-28T21:20:28.619Z,90.77
2022-07-28T21:21:30.702Z,91.37
2022-07-28T21:22:32.925Z,91.29
2022-07-28T21:23:35.027Z,91.87
2022-07-28T21:24:37.218Z,91.45
2022-07-28T21:25:39.350Z,91.23
2022-07-28T21:26:42.903Z,92.53
2022-07-28T21:28:03.668Z,91.70
2022-07-28T21:29:12.338Z,91.23
2022-07-28T21:30:14.644Z,91.83
2022-07-28T21:31:17.827Z,91.58
2022-07-28T21:32:19.898Z,91.11
2022-07-28T21:33:23.378Z,90.95
2022-07-28T21:34:25.961Z,92.17
2022-07-28T21:35:28.151Z,92.13
2022-07-28T21:36:30.418Z,92.66
2022-07-28T21:37:32.542Z,91.73
2022-07-28T21:38:34.846Z,91.45
2022-07-28T21:39:36.973Z,91.36
2022-07-28T21:40:39.180Z,91.56
2022-07-28T21:41:41.354Z,91.61
2022-07-28T21:42:47.117Z,91.50
2022-07-28T21:43:49.215Z,92.06
2022-07-28T21:44:54.233Z,91.54
2022-07-28T21:45:58.699Z,91.70
2022-07-28T21:47:00.750Z,90.77
2022-07-28T21:48:02.882Z,90.09
2022-07-28T21:49:06.175Z,90.36
2022-07-28T21:50:09.135Z,90.39
2022-07-28T21:51:19.099Z,89.71
2022-07-28T21:52:23.630Z,90.71
2022-07-28T21:53:26.217Z,90.27
2022-07-28T21:54:28.356Z,90.10
2022-07-28T21:55:30.774Z,90.24
2022-07-28T21:56:34.707Z,90.29
2022-07-28T21:57:37.501Z,91.05
2022-07-28T21:58:43.041Z,90.86
2022-07-28T21:59:45.528Z,91.64
2022-07-28T22:00:50.967Z,91.35
2022-07-28T22:01:53.117Z,90.98
2022-07-28T22:02:55.409Z,90.69
2022-07-28T22:03:57.724Z,90.61
2022-07-28T22:05:00.003Z,91.27
2022-07-28T22:06:04.958Z,90.99
2022-07-28T22:07:09.271Z,91.02
2022-07-28T22:08:11.428Z,91.30
2022-07-28T22:09:16.566Z,90.68
2022-07-28T22:10:18.989Z,90.81
2022-07-28T22:11:23.014Z,90.05
2022-07-28T22:12:25.458Z,89.58
2022-07-28T22:13:28.271Z,90.16
2022-07-28T22:14:32.522Z,89.77
2022-07-28T22:15:34.716Z,88.75
2022-07-28T22:16:37.033Z,88.54
2022-07-28T22:17:39.204Z,88.13
2022-07-28T22:18:45.852Z,87.66
2022-07-28T22:19:48.085Z,87.58
2022-07-28T22:20:50.441Z,87.30
2022-07-28T22:21:54.153Z,86.94
2022-07-28T22:22:56.641Z,87.59
2022-07-28T22:23:58.711Z,87.57
2022-07-28T22:25:00.994Z,87.77
2022-07-28T22:26:03.537Z,88.31
2022-07-28T22:27:05.815Z,88.00
2022-07-28T22:28:08.665Z,87.32
2022-07-28T22:29:11.257Z,87.13
2022-07-28T22:30:13.584Z,86.78
2022-07-28T22:31:16.303Z,88.27
2022-07-28T22:32:28.129Z,88.04
2022-07-28T22:33:31.243Z,88.15
2022-07-28T22:34:34.107Z,87.85
2022-07-28T22:35:36.276Z,87.81
2022-07-28T22:36:39.095Z,88.32
2022-07-28T22:37:41.403Z,88.98
2022-07-28T22:38:43.507Z,88.98
2022-07-28T22:39:45.648Z,89.06
2022-07-28T22:40:47.865Z,88.55
2022-07-28T22:41:52.579Z,88.46
2022-07-28T22:42:56.893Z,88.28
2022-07-28T22:43:58.946Z,88.30
2022-07-28T22:45:05.645Z,89.26
2022-07-28T22:46:10.417Z,88.86
2022-07-28T22:47:12.540Z,88.44
2022-07-28T22:48:14.589Z,87.74
2022-07-28T22:49:16.885Z,89.17
2022-07-28T22:50:19.323Z,88.87
2022-07-28T22:51:21.830Z,89.65
2022-07-28T22:52:30.245Z,88.88
2022-07-28T22:53:32.309Z,89.43
2022-07-28T22:54:38.534Z,88.75
2022-07-28T22:55:41.511Z,90.13
2022-07-28T22:56:44.942Z,88.96
2022-07-28T22:57:47.520Z,88.33
2022-07-28T22:58:50.326Z,88.17
2022-07-28T22:59:54.040Z,87.70
2022-07-28T23:00:56.780Z,88.77
2022-07-28T23:02:01.476Z,88.19
2022-07-28T23:03:05.851Z,88.27
2022-07-28T23:04:09.695Z,88.74
2022-07-28T23:05:12.371Z,88.74
2022-07-28T23:06:15.036Z,88.93
2022-07-28T23:07:17.659Z,89.24
2022-07-28T23:08:20.923Z,89.27
2022-07-28T23:09:23.406Z,89.27
2022-07-28T23:10:26.082Z,88.81
2022-07-28T23:11:28.831Z,88.89
2022-07-28T23:12:31.369Z,88.54
2022-07-28T23:13:33.945Z,87.83
2022-07-28T23:14:36.716Z,87.88
2022-07-28T23:15:41.492Z,87.97
2022-07-28T23:16:44.478Z,87.93
2022-07-28T23:17:47.697Z,87.44
2022-07-28T23:18:50.476Z,86.99
2022-07-28T23:19:58.376Z,87.15
2022-07-28T23:21:00.874Z,88.34
2022-07-28T23:22:03.607Z,88.21
2022-07-28T23:23:06.773Z,87.99
2022-07-28T23:24:09.421Z,87.41
2022-07-28T23:25:12.254Z,87.50
2022-07-28T23:26:14.868Z,86.86
2022-07-28T23:27:17.420Z,87.05
2022-07-28T23:28:20.011Z,86.78
2022-07-28T23:29:22.928Z,86.52
2022-07-28T23:30:25.648Z,86.67
2022-07-28T23:31:28.434Z,86.63
2022-07-28T23:32:31.131Z,86.77
2022-07-28T23:33:55.917Z,86.88
2022-07-28T23:35:06.157Z,87.39
2022-07-28T23:36:14.770Z,87.76
2022-07-28T23:37:29.479Z,87.81
2022-07-28T23:38:32.127Z,87.49
2022-07-28T23:39:34.865Z,87.79
2022-07-28T23:40:37.485Z,87.10
2022-07-28T23:41:40.415Z,87.39
2022-07-28T23:42:42.962Z,87.92
2022-07-28T23:43:45.510Z,88.20
2022-07-28T23:44:48.074Z,88.10
2022-07-28T23:45:50.558Z,87.80
2022-07-28T23:46:54.046Z,87.39
2022-07-28T23:47:58.828Z,87.60
2022-07-28T23:49:01.830Z,88.16
2022-07-28T23:50:05.738Z,88.14
2022-07-28T23:51:08.619Z,88.74
2022-07-28T23:52:11.237Z,88.10
2022-07-28T23:53:13.784Z,87.16
2022-07-28T23:54:17.180Z,87.02
2022-07-28T23:55:20.200Z,86.97
2022-07-28T23:56:22.707Z,88.08
2022-07-28T23:57:25.249Z,86.55
2022-07-28T23:58:34.448Z,86.97
2022-07-28T23:59:37.005Z,86.92
